createdAt,value
2023-04-01T00:01:28.191Z,96.60
2023-04-01T00:03:55.619Z,96.60
2023-04-01T00:06:22.854Z,96.60
2023-04-01T00:08:49.910Z,96.60
2023-04-01T00:11:17.448Z,96.60
2023-04-01T00:13:47.950Z,96.50
2023-04-01T00:16:21.529Z,96.60
2023-04-01T00:18:50.213Z,96.60
2023-04-01T00:21:17.105Z,96.50
2023-04-01T00:23:44.744Z,96.60
2023-04-01T00:26:13.109Z,96.60
2023-04-01T00:28:41.004Z,96.60
2023-04-01T00:31:09.311Z,96.60
2023-04-01T00:33:36.656Z,96.60
2023-04-01T00:36:14.465Z,96.40
2023-04-01T00:38:43.373Z,96.50
2023-04-01T00:41:15.245Z,96.60
2023-04-01T00:43:47.662Z,96.10
2023-04-01T00:46:15.008Z,95.90
2023-04-01T00:48:49.244Z,96.10
2023-04-01T00:51:23.811Z,96.10
2023-04-01T00:53:53.782Z,96.50
2023-04-01T00:56:26.143Z,96.50
2023-04-01T00:59:01.419Z,96.50
2023-04-01T01:01:30.720Z,96.60
2023-04-01T01:03:57.860Z,96.60
2023-04-01T01:06:39.976Z,96.60
2023-04-01T01:09:47.776Z,96.60
2023-04-01T01:12:22.978Z,96.60
2023-04-01T01:15:17.047Z,96.40
2023-04-01T01:18:16.073Z,96.20
2023-04-01T01:21:05.865Z,96.20
2023-04-01T01:23:57.684Z,96.40
2023-04-01T01:26:59.848Z,96.00
2023-04-01T01:29:58.833Z,95.70
2023-04-01T01:32:44.384Z,95.60
2023-04-01T01:35:41.458Z,95.90
2023-04-01T01:38:18.837Z,96.10
2023-04-01T01:40:55.306Z,95.90
2023-04-01T01:43:32.770Z,95.70
2023-04-01T01:46:07.557Z,95.80
2023-04-01T01:48:36.446Z,95.50
2023-04-01T01:51:07.574Z,95.10
2023-04-01T01:53:35.350Z,94.60
2023-04-01T01:56:02.499Z,94.40
2023-04-01T01:58:41.405Z,94.00
2023-04-01T02:01:20.307Z,94.30
2023-04-01T02:03:48.737Z,93.70
2023-04-01T02:06:19.251Z,93.60
2023-04-01T02:08:53.827Z,93.30
2023-04-01T02:11:46.893Z,93.30
2023-04-01T02:14:30.641Z,93.90
2023-04-01T02:17:09.617Z,93.70
2023-04-01T02:19:42.909Z,93.50
2023-04-01T02:22:17.487Z,94.00
2023-04-01T02:24:46.378Z,93.60
2023-04-01T02:27:13.689Z,93.50
2023-04-01T02:29:40.661Z,93.90
2023-04-01T02:32:09.663Z,93.80
2023-04-01T02:34:37.081Z,93.90
2023-04-01T02:37:04.272Z,93.40
2023-04-01T02:39:31.188Z,93.80
2023-04-01T02:41:58.010Z,93.60
2023-04-01T02:44:24.771Z,93.60
2023-04-01T02:46:51.681Z,93.80
2023-04-01T02:49:18.473Z,93.60
2023-04-01T02:51:45.909Z,93.40
2023-04-01T02:54:12.735Z,93.50
2023-04-01T02:56:39.748Z,93.90
2023-04-01T02:59:06.516Z,93.40
2023-04-01T03:01:33.447Z,93.70
2023-04-01T03:04:00.359Z,93.40
2023-04-01T03:06:27.234Z,93.30
2023-04-01T03:08:54.012Z,93.10
2023-04-01T03:11:22.116Z,93.00
2023-04-01T03:13:49.704Z,93.20
2023-04-01T03:16:16.584Z,93.40
2023-04-01T03:18:43.437Z,93.50
2023-04-01T03:21:36.660Z,94.10
2023-04-01T03:24:03.637Z,93.80
2023-04-01T03:26:30.622Z,93.80
2023-04-01T03:28:58.318Z,93.50
2023-04-01T03:31:25.894Z,93.80
2023-04-01T03:33:56.116Z,93.70
2023-04-01T03:36:23.232Z,93.80
2023-04-01T03:38:50.189Z,93.70
2023-04-01T03:41:23.538Z,93.70
2023-04-01T03:43:50.653Z,93.90
2023-04-01T03:46:20.302Z,94.00
2023-04-01T03:48:47.729Z,94.10
2023-04-01T03:51:14.638Z,94.20
2023-04-01T03:53:41.747Z,94.60
2023-04-01T03:56:09.435Z,94.30
2023-04-01T03:58:37.815Z,94.50
2023-04-01T04:01:22.844Z,94.70
2023-04-01T04:03:53.520Z,94.60
2023-04-01T04:06:21.971Z,94.90
2023-04-01T04:08:49.859Z,94.80
2023-04-01T04:11:17.589Z,94.70
2023-04-01T04:13:44.564Z,94.60
2023-04-01T04:16:11.843Z,94.70
2023-04-01T04:18:43.506Z,94.70
2023-04-01T04:21:14.723Z,94.50
2023-04-01T04:23:42.686Z,94.70
2023-04-01T04:26:12.657Z,94.50
2023-04-01T04:28:40.308Z,94.20
2023-04-01T04:31:08.643Z,94.20
2023-04-01T04:33:36.743Z,93.90
2023-04-01T04:36:05.655Z,94.10
2023-04-01T04:38:32.872Z,93.70
2023-04-01T04:41:00.134Z,93.40
2023-04-01T04:43:27.026Z,93.50
2023-04-01T04:45:54.015Z,93.60
2023-04-01T04:48:21.327Z,93.20
2023-04-01T04:50:51.011Z,93.20
2023-04-01T04:53:20.124Z,93.30
2023-04-01T04:55:50.010Z,93.40
2023-04-01T04:58:40.214Z,93.40
2023-04-01T05:01:13.177Z,93.50
2023-04-01T05:03:40.879Z,93.80
2023-04-01T05:06:09.438Z,93.30
2023-04-01T05:08:37.376Z,93.20
2023-04-01T05:11:04.393Z,93.10
2023-04-01T05:13:33.645Z,93.10
2023-04-01T05:16:00.387Z,93.30
2023-04-01T05:18:27.123Z,93.50
2023-04-01T05:20:55.133Z,93.60
2023-04-01T05:23:23.313Z,93.70
2023-04-01T05:25:51.922Z,93.60
2023-04-01T05:28:18.777Z,93.60
2023-04-01T05:30:47.742Z,93.70
2023-04-01T05:33:22.195Z,93.80
2023-04-01T05:35:49.308Z,94.00
2023-04-01T05:38:16.128Z,93.90
2023-04-01T05:40:42.880Z,93.50
2023-04-01T05:43:09.936Z,93.60
2023-04-01T05:45:36.833Z,93.90
2023-04-01T05:48:31.724Z,93.60
2023-04-01T05:50:58.831Z,93.40
2023-04-01T05:53:25.763Z,93.00
2023-04-01T05:55:52.627Z,92.90
2023-04-01T05:58:19.577Z,92.80
2023-04-01T06:00:47.932Z,92.00
2023-04-01T06:03:17.097Z,92.00
2023-04-01T06:05:45.290Z,92.10
2023-04-01T06:08:20.363Z,91.40
2023-04-01T06:11:17.242Z,91.40
2023-04-01T06:14:06.861Z,91.70
2023-04-01T06:17:06.857Z,91.70
2023-04-01T06:19:46.834Z,91.20
2023-04-01T06:22:35.343Z,91.40
2023-04-01T06:25:36.281Z,90.80
2023-04-01T06:28:34.297Z,90.80
2023-04-01T06:31:18.102Z,91.20
2023-04-01T06:33:57.589Z,90.60
2023-04-01T06:37:09.105Z,89.80
2023-04-01T06:39:47.996Z,90.10
2023-04-01T06:42:29.829Z,89.80
2023-04-01T06:45:36.691Z,89.70
2023-04-01T06:48:31.421Z,89.80
2023-04-01T06:51:32.960Z,89.90
2023-04-01T06:54:22.455Z,90.00
2023-04-01T06:57:14.332Z,89.60
2023-04-01T06:59:42.311Z,89.70
2023-04-01T07:02:21.023Z,89.20
2023-04-01T07:04:51.945Z,88.90
2023-04-01T07:07:42.391Z,88.80
2023-04-01T07:10:18.538Z,89.20
2023-04-01T07:13:11.127Z,88.30
2023-04-01T07:16:32.766Z,89.30
2023-04-01T07:19:21.842Z,88.30
2023-04-01T07:22:04.710Z,88.30
2023-04-01T07:24:55.361Z,88.30
2023-04-01T07:27:22.175Z,88.30
2023-04-01T07:29:49.079Z,88.00
2023-04-01T07:32:30.942Z,88.00
2023-04-01T07:35:22.647Z,88.20
2023-04-01T07:38:20.282Z,88.50
2023-04-01T07:41:03.834Z,88.30
2023-04-01T07:43:56.834Z,88.50
2023-04-01T07:46:55.710Z,88.10
2023-04-01T07:49:46.571Z,88.50
2023-04-01T07:52:19.258Z,89.30
2023-04-01T07:54:49.126Z,89.50
2023-04-01T07:57:25.253Z,89.80
2023-04-01T08:00:23.755Z,89.20
2023-04-01T08:03:23.745Z,89.20
2023-04-01T08:06:03.908Z,88.60
2023-04-01T08:08:50.752Z,88.50
2023-04-01T08:11:43.702Z,88.50
2023-04-01T08:15:02.312Z,89.00
2023-04-01T08:17:55.004Z,89.20
2023-04-01T08:20:28.993Z,89.40
2023-04-01T08:23:06.770Z,89.80
2023-04-01T08:25:44.721Z,89.90
2023-04-01T08:28:35.549Z,89.70
2023-04-01T08:31:10.219Z,90.40
2023-04-01T08:33:37.810Z,90.10
2023-04-01T08:36:31.252Z,89.70
2023-04-01T08:39:31.869Z,90.60
2023-04-01T08:42:05.224Z,90.60
2023-04-01T08:45:08.039Z,90.80
2023-04-01T08:48:10.150Z,91.00
2023-04-01T08:50:54.347Z,92.00
2023-04-01T08:54:07.179Z,91.60
2023-04-01T08:56:48.514Z,91.80
2023-04-01T08:59:37.293Z,92.00
2023-04-01T09:02:29.664Z,93.30
2023-04-01T09:05:37.453Z,94.00
2023-04-01T09:08:39.061Z,93.90
2023-04-01T09:11:07.750Z,95.30
2023-04-01T09:13:56.089Z,94.80
2023-04-01T09:17:00.846Z,94.90
2023-04-01T09:19:52.401Z,95.60
2023-04-01T09:22:34.911Z,95.60
2023-04-01T09:25:13.570Z,95.70
2023-04-01T09:27:57.590Z,96.10
2023-04-01T09:30:57.967Z,96.60
2023-04-01T09:33:43.743Z,96.30
2023-04-01T09:36:29.641Z,96.10
2023-04-01T09:39:25.493Z,96.10
2023-04-01T09:42:14.673Z,96.00
2023-04-01T09:45:21.142Z,94.90
2023-04-01T09:48:13.415Z,94.90
2023-04-01T09:50:48.339Z,94.20
2023-04-01T09:53:37.947Z,94.20
2023-04-01T09:56:40.504Z,93.40
2023-04-01T09:59:35.466Z,94.00
2023-04-01T10:03:11.189Z,92.60
2023-04-01T10:05:41.237Z,92.70
2023-04-01T10:08:17.084Z,91.10
2023-04-01T10:10:51.714Z,91.70
2023-04-01T10:13:48.180Z,89.70
2023-04-01T10:16:46.394Z,89.50
2023-04-01T10:19:19.483Z,89.50
2023-04-01T10:22:14.178Z,90.60
2023-04-01T10:24:53.957Z,89.80
2023-04-01T10:27:29.896Z,89.40
2023-04-01T10:30:30.506Z,89.10
2023-04-01T10:33:03.055Z,88.80
2023-04-01T10:35:52.590Z,89.40
2023-04-01T10:38:48.894Z,89.70
2023-04-01T10:41:37.510Z,89.30
2023-04-01T10:45:11.364Z,90.10
2023-04-01T10:48:06.462Z,91.00
2023-04-01T10:51:25.330Z,91.20
2023-04-01T10:54:13.972Z,91.80
2023-04-01T10:56:59.599Z,92.00
2023-04-01T11:00:18.643Z,93.40
2023-04-01T11:03:32.201Z,94.70
2023-04-01T11:06:32.429Z,94.20
2023-04-01T11:09:05.284Z,94.90
2023-04-01T11:12:03.460Z,94.40
2023-04-01T11:14:34.480Z,94.30
2023-04-01T11:17:42.660Z,95.10
2023-04-01T11:20:12.651Z,95.10
2023-04-01T11:23:10.586Z,94.60
2023-04-01T11:25:57.654Z,95.50
2023-04-01T11:28:48.696Z,95.60
2023-04-01T11:31:16.531Z,96.10
2023-04-01T11:33:46.517Z,95.50
2023-04-01T11:36:38.273Z,96.10
2023-04-01T11:39:37.078Z,96.40
2023-04-01T11:42:53.367Z,95.10
2023-04-01T11:46:10.329Z,95.40
2023-04-01T11:48:51.802Z,96.10
2023-04-01T11:51:28.955Z,96.60
2023-04-01T11:54:38.785Z,96.60
2023-04-01T11:57:24.261Z,96.60
2023-04-01T12:00:00.089Z,96.60
2023-04-01T12:02:49.735Z,96.60
2023-04-01T12:05:35.103Z,96.60
2023-04-01T12:08:25.483Z,96.60
2023-04-01T12:11:31.239Z,96.60
2023-04-01T12:14:06.119Z,96.60
2023-04-01T12:16:45.673Z,96.60
2023-04-01T12:19:15.539Z,96.60
2023-04-01T12:22:11.218Z,96.60
2023-04-01T12:24:48.552Z,96.60
2023-04-01T12:27:28.649Z,96.60
2023-04-01T12:30:31.188Z,96.60
2023-04-01T12:33:37.271Z,96.60
2023-04-01T12:36:36.177Z,96.10
2023-04-01T12:39:24.051Z,96.10
2023-04-01T12:42:11.529Z,96.00
2023-04-01T12:44:50.911Z,94.70
2023-04-01T12:47:57.110Z,95.00
2023-04-01T12:50:39.445Z,93.00
2023-04-01T12:53:12.009Z,93.40
2023-04-01T12:55:43.962Z,92.80
2023-04-01T12:58:23.651Z,92.40
2023-04-01T13:01:26.211Z,92.00
2023-04-01T13:04:27.342Z,92.00
2023-04-01T13:07:03.378Z,90.60
2023-04-01T13:09:56.205Z,91.40
2023-04-01T13:12:41.842Z,92.60
2023-04-01T13:15:18.392Z,93.70
2023-04-01T13:18:06.378Z,92.70
2023-04-01T13:21:07.393Z,92.80
2023-04-01T13:23:43.820Z,92.20
2023-04-01T13:26:33.591Z,92.20
2023-04-01T13:29:16.408Z,94.10
2023-04-01T13:32:14.891Z,94.30
2023-04-01T13:35:12.454Z,94.10
2023-04-01T13:38:03.833Z,94.00
2023-04-01T13:41:08.020Z,94.80
2023-04-01T13:43:47.537Z,94.50
2023-04-01T13:46:42.566Z,94.80
2023-04-01T13:49:57.099Z,96.10
2023-04-01T13:52:50.334Z,95.50
2023-04-01T13:55:25.832Z,96.50
2023-04-01T13:58:18.227Z,96.00
2023-04-01T14:01:13.906Z,96.30
2023-04-01T14:03:55.408Z,96.60
2023-04-01T14:06:47.435Z,96.60
2023-04-01T14:09:17.674Z,96.60
2023-04-01T14:11:56.313Z,96.60
2023-04-01T14:14:35.704Z,96.60
2023-04-01T14:17:18.894Z,96.60
2023-04-01T14:20:27.513Z,96.60
2023-04-01T14:22:54.264Z,96.60
2023-04-01T14:25:45.919Z,96.60
2023-04-01T14:28:49.667Z,96.60
2023-04-01T14:31:37.037Z,96.60
2023-04-01T14:34:13.540Z,96.60
2023-04-01T14:37:01.477Z,96.60
2023-04-01T14:39:49.962Z,96.60
2023-04-01T14:42:28.988Z,96.60
2023-04-01T14:45:27.007Z,96.60
2023-04-01T14:48:22.957Z,96.60
2023-04-01T14:50:56.372Z,96.60
2023-04-01T14:53:26.566Z,96.60
2023-04-01T14:55:54.727Z,96.60
2023-04-01T14:58:26.389Z,96.60
2023-04-01T15:01:19.653Z,96.60
2023-04-01T15:04:24.061Z,96.60
2023-04-01T15:07:23.669Z,96.60
2023-04-01T15:10:06.845Z,96.60
2023-04-01T15:12:35.645Z,96.60
2023-04-01T15:15:02.434Z,96.60
2023-04-01T15:17:44.549Z,96.60
2023-04-01T15:20:49.246Z,96.60
2023-04-01T15:23:27.983Z,96.60
2023-04-01T15:26:13.879Z,96.60
2023-04-01T15:29:09.556Z,96.60
2023-04-01T15:31:48.299Z,96.60
2023-04-01T15:34:46.939Z,96.60
2023-04-01T15:37:41.853Z,96.60
2023-04-01T15:40:19.799Z,96.60
2023-04-01T15:43:06.264Z,96.60
2023-04-01T15:45:47.397Z,96.60
2023-04-01T15:48:29.183Z,96.60
2023-04-01T15:51:20.437Z,96.60
2023-04-01T15:54:06.057Z,96.60
2023-04-01T15:56:47.965Z,96.60
2023-04-01T15:59:38.101Z,96.60
2023-04-01T16:02:47.301Z,96.60
2023-04-01T16:06:08.027Z,96.60
2023-04-01T16:09:09.720Z,96.60
2023-04-01T16:11:41.774Z,96.60
2023-04-01T16:14:29.430Z,96.60
2023-04-01T16:17:33.076Z,96.60
2023-04-01T16:20:18.715Z,96.60
2023-04-01T16:23:03.242Z,96.60
2023-04-01T16:26:14.882Z,96.60
2023-04-01T16:28:54.453Z,96.60
2023-04-01T16:31:46.884Z,96.60
2023-04-01T16:34:31.248Z,96.60
2023-04-01T16:37:30.261Z,96.60
2023-04-01T16:40:27.976Z,96.60
2023-04-01T16:43:06.945Z,96.60
2023-04-01T16:45:40.967Z,96.60
2023-04-01T16:48:21.444Z,96.60
2023-04-01T16:51:05.307Z,96.60
2023-04-01T16:53:37.848Z,96.60
2023-04-01T16:56:23.783Z,96.60
2023-04-01T16:59:05.228Z,96.60
2023-04-01T17:01:48.586Z,96.60
2023-04-01T17:04:29.849Z,96.60
2023-04-01T17:07:20.713Z,96.60
2023-04-01T17:09:50.410Z,96.60
2023-04-01T17:12:35.488Z,96.60
2023-04-01T17:15:05.048Z,96.60
2023-04-01T17:17:37.525Z,96.60
2023-04-01T17:20:04.555Z,96.60
2023-04-01T17:22:40.718Z,96.60
2023-04-01T17:25:31.629Z,96.60
2023-04-01T17:28:21.135Z,96.60
2023-04-01T17:31:25.918Z,96.60
2023-04-01T17:34:22.210Z,96.60
2023-04-01T17:37:04.316Z,96.60
2023-04-01T17:39:46.231Z,96.60
2023-04-01T17:42:35.364Z,96.60
2023-04-01T17:45:10.853Z,96.60
2023-04-01T17:47:46.633Z,96.60
2023-04-01T17:50:24.226Z,96.60
2023-04-01T17:53:10.919Z,96.60
2023-04-01T17:56:06.937Z,96.60
2023-04-01T17:58:59.706Z,96.60
2023-04-01T18:01:59.657Z,96.60
2023-04-01T18:05:02.168Z,96.60
2023-04-01T18:07:36.285Z,96.60
2023-04-01T18:10:15.320Z,96.60
2023-04-01T18:13:07.038Z,96.60
2023-04-01T18:15:46.105Z,96.60
2023-04-01T18:18:40.353Z,96.60
2023-04-01T18:21:25.577Z,96.60
2023-04-01T18:24:24.266Z,96.60
2023-04-01T18:27:16.902Z,96.60
2023-04-01T18:29:59.960Z,96.60
2023-04-01T18:32:36.035Z,96.60
2023-04-01T18:35:15.215Z,96.60
2023-04-01T18:37:52.123Z,96.60
2023-04-01T18:40:25.359Z,96.60
2023-04-01T18:43:24.759Z,96.60
2023-04-01T18:46:06.910Z,96.60
2023-04-01T18:48:58.741Z,96.60
2023-04-01T18:51:40.008Z,96.60
2023-04-01T18:54:24.227Z,96.60
2023-04-01T18:56:51.707Z,96.60
2023-04-01T18:59:30.628Z,96.60
2023-04-01T19:02:29.675Z,96.60
2023-04-01T19:05:05.810Z,96.60
2023-04-01T19:07:44.844Z,96.60
2023-04-01T19:10:23.932Z,96.60
2023-04-01T19:12:53.709Z,96.60
2023-04-01T19:15:47.077Z,96.60
2023-04-01T19:18:41.937Z,96.60
2023-04-01T19:21:29.039Z,96.60
2023-04-01T19:24:10.135Z,96.60
2023-04-01T19:27:19.910Z,96.60
2023-04-01T19:30:20.522Z,96.60
2023-04-01T19:33:05.946Z,96.60
2023-04-01T19:35:52.527Z,96.60
2023-04-01T19:38:40.233Z,96.60
2023-04-01T19:41:19.559Z,96.60
2023-04-01T19:44:17.617Z,96.60
2023-04-01T19:46:50.687Z,96.60
2023-04-01T19:49:25.358Z,96.60
2023-04-01T19:52:10.670Z,96.60
2023-04-01T19:54:37.536Z,96.60
2023-04-01T19:57:26.005Z,96.60
2023-04-01T20:00:14.888Z,96.60
2023-04-01T20:02:57.653Z,96.60
2023-04-01T20:05:52.307Z,96.60
2023-04-01T20:08:56.867Z,96.60
2023-04-01T20:11:39.790Z,96.60
2023-04-01T20:14:34.783Z,96.60
2023-04-01T20:17:08.137Z,96.60
2023-04-01T20:19:37.395Z,96.60
2023-04-01T20:22:16.804Z,96.60
2023-04-01T20:24:47.447Z,96.60
2023-04-01T20:27:14.299Z,96.60
2023-04-01T20:30:09.325Z,96.60
2023-04-01T20:32:49.280Z,96.60
2023-04-01T20:35:43.184Z,96.60
2023-04-01T20:38:40.116Z,96.60
2023-04-01T20:41:12.882Z,96.60
2023-04-01T20:44:13.707Z,96.60
2023-04-01T20:46:47.069Z,96.60
2023-04-01T20:49:49.435Z,96.60
2023-04-01T20:52:16.549Z,96.60
2023-04-01T20:55:08.133Z,96.60
2023-04-01T20:58:04.461Z,96.60
2023-04-01T21:00:59.139Z,96.60
2023-04-01T21:03:56.968Z,96.60
2023-04-01T21:06:27.722Z,96.60
2023-04-01T21:08:57.567Z,96.60
2023-04-01T21:11:55.288Z,96.60
2023-04-01T21:14:31.564Z,96.60
2023-04-01T21:17:21.517Z,96.60
2023-04-01T21:20:05.460Z,96.60
2023-04-01T21:22:37.495Z,96.60
2023-04-01T21:25:27.457Z,96.60
2023-04-01T21:28:15.924Z,96.60
2023-04-01T21:31:03.495Z,96.60
2023-04-01T21:33:46.078Z,96.60
2023-04-01T21:36:45.962Z,96.60
2023-04-01T21:39:40.561Z,96.60
2023-04-01T21:42:13.693Z,96.60
2023-04-01T21:45:02.058Z,96.60
2023-04-01T21:47:31.610Z,96.60
2023-04-01T21:50:19.850Z,96.60
2023-04-01T21:53:08.662Z,96.60
2023-04-01T21:55:53.558Z,96.60
2023-04-01T21:58:38.951Z,96.60
2023-04-01T22:01:17.051Z,96.60
2023-04-01T22:04:26.069Z,96.60
2023-04-01T22:07:03.544Z,96.60
2023-04-01T22:09:32.904Z,96.60
2023-04-01T22:12:06.619Z,96.60
2023-04-01T22:14:45.740Z,96.60
2023-04-01T22:17:19.989Z,96.60
2023-04-01T22:20:12.593Z,96.60
2023-04-01T22:23:13.005Z,96.60
2023-04-01T22:25:48.645Z,96.60
2023-04-01T22:28:51.904Z,96.60
2023-04-01T22:31:27.814Z,96.60
2023-04-01T22:34:10.629Z,96.60
2023-04-01T22:36:57.207Z,96.60
2023-04-01T22:39:48.080Z,96.60
2023-04-01T22:42:43.235Z,96.60
2023-04-01T22:45:41.675Z,96.60
2023-04-01T22:48:23.563Z,96.60
2023-04-01T22:50:50.339Z,96.60
2023-04-01T22:53:45.954Z,96.60
2023-04-01T22:56:19.479Z,96.60
2023-04-01T22:59:11.157Z,96.60
2023-04-01T23:01:51.891Z,96.60
2023-04-01T23:04:25.132Z,96.60
2023-04-01T23:06:58.800Z,96.60
2023-04-01T23:09:29.488Z,96.60
2023-04-01T23:12:05.123Z,96.60
2023-04-01T23:14:47.706Z,96.60
2023-04-01T23:17:39.487Z,96.60
2023-04-01T23:20:09.629Z,96.60
2023-04-01T23:22:45.537Z,96.60
2023-04-01T23:25:28.142Z,96.60
2023-04-01T23:28:00.922Z,96.60
2023-04-01T23:30:39.958Z,96.60
2023-04-01T23:33:30.379Z,96.60
2023-04-01T23:36:14.533Z,96.60
2023-04-01T23:38:43.285Z,96.60
2023-04-01T23:41:21.384Z,96.60
2023-04-01T23:43:59.222Z,96.60
2023-04-01T23:46:26.912Z,96.60
2023-04-01T23:48:54.542Z,96.60
2023-04-01T23:51:27.660Z,96.60
2023-04-01T23:54:10.539Z,96.60
2023-04-01T23:56:46.537Z,96.60
2023-04-01T23:59:23.953Z,96.60
